Terminal Aerodrome Forecast
Issued by NWS

Home | Current Version | Previous Version | Text Only | Print | Product List | Glossary On
Versions: 1 2 3 4 5 6 7 8 9 10 11 12 13 14 15
000
FTUS42 KGSP 260901 AAA
TAFAND
TAF AMD
KAND 260901Z 2609/2706 16006KT P6SM SCT012 OVC045
     FM261000 16006KT P6SM SCT007 OVC012
      TEMPO 2610/2614 OVC007
     FM261400 16005KT P6SM OVC021
     FM261600 17005KT P6SM OVC030 PROB30 2618/2620 4SM TSRA OVC020CB
     FM262000 18005KT P6SM BKN045 PROB30 2620/2701 4SM TSRA BKN040CB
     FM270500 16006KT P6SM VCTS OVC035CB=

USA.gov is the U.S. government's official web portal to all federal, state and local government web resources and services.